Tiempo atmosférico en la estación meteorológica de Osuna, Sevilla (255 m.)



Fecha
DESCASC
Temp. máxima en grados centígrados (hora)
DESCASC
Temp. mínima en grados centígrados (hora)
DESCASC
Temp. media en grados centígrados
DESCASC
Racha de viento máxima en m/sg (hora)
DESCASC
Velocidad máxima media en intervalos de 10 minutos(hora)
DESCASC
Precipitaciones diarias en mm
DESCASC
Precipitaciones de 00:00 a 06:00 en mm
DESCASC
Precipitaciones de 06:00 a 12:00 en mm
DESCASC
Precipitaciones de 12:00 a 18:00 en mm
DESCASC
Precipitaciones de 18:00 a 24:00 en mm
DESCASC
28-02-2021 16 (12:50) 10.7 (03:40) 13.3 10 (13:20) 5.28 (11:00) 0 0 0 0 0
27-02-2021 15.6 (14:20) 11 (06:20) 13.3 8.61 (14:50) 4.72 (00:30) 0 0 0 0 0
26-02-2021 16.6 (15:10) 12.4 (23:59) 14.5 10.83 (12:40) 5.83 (02:00) 0 0 0 0 0
25-02-2021 16.3 (12:50) 12.6 (00:00) 14.4 20 (02:10) 10.83 (01:20) 0 0 0 0 0
24-02-2021 16.6 (16:10) 11.1 (00:00) 13.9 19.17 (23:40) 10 (23:50) 0 0 0 0 0
23-02-2021 17.4 (15:40) 8.2 (00:00) 12.8 12.5 (23:00) 7.22 (23:00) 0 0 0 0 0
22-02-2021 14.6 (16:30) 6.4 (00:00) 10.5 8.61 (16:00) 5.56 (16:00) 0 0 0 0 0
21-02-2021 14.8 (03:20) 8.5 (00:00) 11.7 13.89 (01:10) 8.61 (01:10) 14.8 0 3.2 11.6 0
20-02-2021 20.3 (15:30) 10.7 (00:00) 15.5 15.83 (23:59) 8.89 (23:30) 0 0 0 0 0
19-02-2021 16.2 (17:00) 7.3 (00:00) 11.8 5.28 (14:50) 3.61 (17:40) 0 0 0 0 0
18-02-2021 17.3 (17:10) 10.9 (00:00) 14.1 5.83 (14:00) 4.17 (13:00) 0 0 0 0 0
17-02-2021 23.9 (15:20) 9.8 (00:00) 16.8 4.72 (09:40) 3.33 (15:40) 0 0 0 0 0
16-02-2021 21.5 (16:30) 10.7 (00:00) 16.1 13.61 (00:10) 7.22 (00:10) 0 0 0 0 0
15-02-2021 16.9 (14:40) 12.1 (00:00) 14.5 20.28 (07:50) 9.44 (10:30) 0 0 0 0 0
14-02-2021 19.7 (14:50) 10.9 (00:00) 15.3 16.67 (21:20) 8.89 (21:50) 0 0 0 0 0
13-02-2021 17.9 (17:30) 9 (00:00) 13.4 5.28 (15:50) 2.78 (09:40) 0 0 0 0 0
12-02-2021 17.5 (17:00) 11.6 (00:00) 14.6 7.78 (14:30) 5 (11:00) 1.8 0 1.8 0 0
11-02-2021 16.1 (14:40) 13 (00:00) 14.6 5.83 (00:10) 3.61 (00:20) 0.4 0.4 0 0 0
10-02-2021 15.3 (14:50) 12.2 (00:00) 13.8 19.17 (09:50) 11.67 (12:30) 4 2 1 0 1
09-02-2021 15.3 (14:40) 10.7 (00:00) 13 19.72 (14:50) 10.83 (15:00) 5.4 1.2 0 3.6 0.6
08-02-2021 15.2 (14:40) 10.3 (00:00) 12.8 17.22 (07:00) 10 (14:20) 8.4 1.2 7 0 0.2
07-02-2021 12.9 (14:50) 9 (00:00) 10.9 14.17 (15:50) 9.72 (15:40) 0 0 0 0 0
06-02-2021 13.8 (15:10) 9.5 (00:00) 11.7 12.78 (16:00) 8.61 (16:00) 0 0 0 0 0
05-02-2021 15.8 (11:50) 10.9 (00:00) 13.3 10 (05:40) 5 (11:20) 0.2 0 0 0 0.2
04-02-2021 17.1 (15:20) 11 (00:00) 14.1 6.67 (23:20) 3.89 (21:00) 0 0 0 0 0
03-02-2021 16.3 (15:40) 12.1 (00:00) 14.2 3.89 (13:20) 2.22 (14:40) 0 0 0 0 0
02-02-2021 17.5 (16:20) 10.8 (01:10) 14.2 4.44 (15:00) 3.06 (15:00) 0 0 0 0 0
01-02-2021 17 (15:10) 11.1 (00:00) 14.1 12.22 (16:50) 7.5 (02:40) 0.2 0.2 0 0 0

Gráficas

Temp. máximas Temp. mínimas Temp. medias Precipitaciones Rachas de viento máximas Velocidades máximas media en intervalos de 10 minutos

Datos horarios

Fecha y hora oficial Temperatura (ºC) Velocidad del viento (km/h) Dirección del viento Racha (km/h) Dirección de racha Precipitación (mm) Presión (hPa) Tendencia (hPa) Humedad (%)
2021-03-02 23:00:00 15.1 6 Este 14 Sudeste 0 -- -- 70
2021-03-02 22:00:00 15.2 6 Sudeste 9 Sudeste 0 -- -- 71
2021-03-02 21:00:00 15.8 5 Sudeste 8 Sudeste 0 -- -- 69
2021-03-02 20:00:00 16.7 0 Calma 4 Este 0 -- -- 66
2021-03-02 19:00:00 17.6 0 Calma 9 Norte 0 -- -- 62
2021-03-02 18:00:00 18.1 4 Norte 11 Norte 0 -- -- 58
2021-03-02 17:00:00 18.6 4 Norte 15 Nordeste 0 -- -- 57
2021-03-02 16:00:00 18.1 6 Nordeste 14 Norte 0 -- -- 59
2021-03-02 15:00:00 18.5 5 Noroeste 21 Noroeste 0 -- -- 58
2021-03-02 14:00:00 18 7 Oeste 18 Oeste 0 -- -- 59
2021-03-02 13:00:00 17.3 5 Oeste 13 Noroeste 0 -- -- 60
2021-03-02 12:00:00 16.4 6 Oeste 13 Oeste 0 -- -- 64
2021-03-02 11:00:00 15.4 2 Oeste 6 Oeste 0 -- -- 68
2021-03-02 10:00:00 14.3 0 Calma 3 Este 0 -- -- 71
2021-03-02 09:00:00 12.3 2 Este 8 Sudeste 0 -- -- 77
2021-03-02 08:00:00 11.8 3 Este 7 Este 0 -- -- 77
2021-03-02 07:00:00 11.6 3 Este 8 Sudeste 0 -- -- 77
2021-03-02 06:00:00 12 5 Sudeste 9 Sudeste 0 -- -- 75
2021-03-02 05:00:00 11.9 7 Sudeste 9 Sudeste 0 -- -- 76
2021-03-02 04:00:00 12.6 0 Calma 4 Sudoeste 0 -- -- 73
2021-03-02 03:00:00 12.9 3 Sur 8 Sudoeste 0 -- -- 74
2021-03-02 02:00:00 13.5 4 Sudoeste 10 Sur 0 -- -- 72
2021-03-02 01:00:00 13.6 2 Sudoeste 8 Sudeste 0 -- -- 73
2021-03-02 00:00:00 14.6 6 Sudeste 9 Sudeste 0 -- -- 66
2021-03-01 23:00:00 14.6 5 Sudeste 9 Sudeste 0 -- -- 66
2021-03-01 22:00:00 14.6 0 Calma 4 Sur 0 -- -- 68
2021-03-01 21:00:00 15.1 0 Calma 4 Sur 0 -- -- 66
2021-03-01 20:00:00 15.4 0 Calma 4 Este 0 -- -- 63
2021-03-01 19:00:00 16.1 2 Este 5 Nordeste 0 -- -- 61
2021-03-01 18:00:00 16.8 3 Nordeste 12 Norte 0 -- -- 56
2021-03-01 17:00:00 17.2 6 Norte 12 Norte 0 -- -- 59
2021-03-01 16:00:00 17.3 5 Nordeste 13 Norte 0 -- -- 58
2021-03-01 15:00:00 17.1 6 Este 19 Sudeste 0 -- -- 55
2021-03-01 14:00:00 16.9 9 Sudeste 21 Este 0 -- -- 57
2021-03-01 13:00:00 16.4 5 Sudeste 20 Sudeste 0 -- -- 58
2021-03-01 12:00:00 15.6 7 Este 17 Nordeste 0 -- -- 64
2021-03-01 11:00:00 14 4 Este 12 Este 0 -- -- 69
2021-03-01 10:00:00 12.8 6 Este 15 Sudeste 0 -- -- 73
2021-03-01 09:00:00 11.2 7 Sudeste 13 Sudeste 0 -- -- 80
2021-03-01 08:00:00 11.2 9 Sudeste 17 Este 0 -- -- 80
2021-03-01 07:00:00 11.3 6 Este 18 Este 0 -- -- 81
2021-03-01 06:00:00 11.4 9 Este 19 Este 0 -- -- 82
2021-03-01 05:00:00 11.6 8 Este 17 Este 0 -- -- 83
2021-03-01 04:00:00 11.2 4 Este 12 Este 0.2 -- -- 86
2021-03-01 03:00:00 11.8 3 Sudeste 19 Sudeste 0.2 -- -- 83
2021-03-01 02:00:00 12.2 12 Sudeste 31 Sudeste 0 -- -- 81
2021-03-01 01:00:00 13 14 Sudeste 28 Sudeste 0 -- -- 77
2021-03-01 00:00:00 12.4 6 Este 14 Este 0 -- -- 76
2021-02-28 23:00:00 12.5 10 Sudeste 19 Sudeste 0 -- -- 75
2021-02-28 22:00:00 12.5 13 Sudeste 23 Sudeste 0 -- -- 75
2021-02-28 21:00:00 13.2 9 Sudeste 21 Sudeste 0 -- -- 71
2021-02-28 20:00:00 13.8 9 Sudeste 18 Sudeste 0 -- -- 69
2021-02-28 19:00:00 14.4 10 Sudeste 22 Sudeste 0 -- -- 66
2021-02-28 18:00:00 15.1 13 Sudeste 27 Sur 0 -- -- 60
2021-02-28 17:00:00 15.2 14 Sudeste 27 Sudeste 0 -- -- 59
2021-02-28 16:00:00 15.5 15 Sudeste 31 Sudeste 0 -- -- 57
2021-02-28 15:00:00 15.3 17 Sudeste 33 Sudeste 0 -- -- 56
2021-02-28 14:00:00 15.1 18 Sur 36 Sur 0 -- -- 58
2021-02-28 13:00:00 15.9 16 Sur 29 Este 0 -- -- 58
2021-02-28 12:00:00 14.5 10 Sudeste 35 Sudeste 0 -- -- 65
2021-02-28 11:00:00 14.1 19 Sudeste 34 Sudeste 0 -- -- 65
2021-02-28 10:00:00 13.5 19 Sudeste 31 Sudeste 0 -- -- 67
2021-02-28 09:00:00 12.2 14 Sudeste 26 Sudeste 0 -- -- 73
2021-02-28 08:00:00 11.8 12 Sudeste 24 Sudeste 0 -- -- 72
2021-02-28 07:00:00 11.9 15 Sudeste 31 Sudeste 0 -- -- 73
2021-02-28 06:00:00 12 7 Sudeste 19 Sur 0 -- -- 73
2021-02-28 05:00:00 11.6 3 Sudeste 22 Sudeste 0 -- -- 74
2021-02-28 04:00:00 11 6 Este 15 Nordeste 0 -- -- 80
2021-02-28 03:00:00 11.5 6 Este 17 Este 0 -- -- 78
2021-02-28 02:00:00 11.9 4 Sudeste 25 Este 0 -- -- 76
2021-02-28 01:00:00 12.2 15 Sudeste 27 Sudeste 0 -- -- 75
2021-02-28 00:00:00 11.9 6 Sur 22 Sudeste 0 -- -- 76
2021-02-27 23:00:00 11.8 8 Sudeste 15 Sudeste 0 -- -- 74
2021-02-27 22:00:00 11.7 4 Sudeste 12 Sudeste 0 -- -- 75
2021-02-27 21:00:00 12.3 5 Sudeste 15 Sudeste 0 -- -- 73
2021-02-27 20:00:00 13 7 Sudeste 13 Sudeste 0 -- -- 69
2021-02-27 19:00:00 13.8 8 Sudeste 18 Sudeste 0 -- -- 65
2021-02-27 18:00:00 14.6 8 Sudeste 21 Sudeste 0 -- -- 62
2021-02-27 17:00:00 14.8 11 Sudeste 28 Sudeste 0 -- -- 61
2021-02-27 16:00:00 15 13 Sudeste 26 Este 0 -- -- 60
2021-02-27 15:00:00 15.4 13 Sudeste 31 Sudeste 0 -- -- 59
2021-02-27 14:00:00 15.4 14 Sudeste 23 Sudeste 0 -- -- 59
2021-02-27 13:00:00 14.8 12 Sudeste 22 Sudeste 0 -- -- 62
2021-02-27 12:00:00 14.3 10 Sudeste 25 Este 0 -- -- 67
2021-02-27 11:00:00 13.6 12 Sudeste 26 Sudeste 0 -- -- 70
2021-02-27 10:00:00 12.2 13 Sudeste 21 Sudeste 0 -- -- 79
2021-02-27 09:00:00 11.4 9 Este 17 Este 0 -- -- 81
2021-02-27 08:00:00 11.1 10 Sudeste 15 Sudeste 0 -- -- 81
2021-02-27 07:00:00 11.2 8 Sudeste 16 Sudeste 0 -- -- 80
2021-02-27 06:00:00 11.2 11 Sudeste 17 Sudeste 0 -- -- 80
2021-02-27 05:00:00 11.8 8 Sudeste 21 Sudeste 0 -- -- 77
2021-02-27 04:00:00 12.3 10 Sudeste 24 Este 0 -- -- 74
2021-02-27 03:00:00 11.7 9 Sudeste 19 Sudeste 0 -- -- 78
2021-02-27 02:00:00 12 11 Sudeste 23 Sudeste 0 -- -- 76
2021-02-27 01:00:00 12.2 14 Sudeste 26 Sudeste 0 -- -- 76
2021-02-27 00:00:00 12.4 13 Sudeste 23 Este 0 -- -- 71
2021-02-26 23:00:00 13.4 9 Sudeste 19 Sudeste 0 -- -- 65
2021-02-26 22:00:00 13.4 9 Sudeste 15 Sudeste 0 -- -- 66
2021-02-26 21:00:00 13.2 5 Sudeste 19 Sudeste 0 -- -- 70
2021-02-26 20:00:00 13.6 10 Sudeste 15 Sudeste 0 -- -- 70
2021-02-26 19:00:00 14.6 8 Sudeste 18 Sudeste 0 -- -- 65
2021-02-26 18:00:00 15.4 10 Sudeste 21 Sur 0 -- -- 62
2021-02-26 17:00:00 15.9 10 Sudeste 24 Sudeste 0 -- -- 59
2021-02-26 16:00:00 16.5 12 Sudeste 26 Sudeste 0 -- -- 57
2021-02-26 15:00:00 16.5 13 Sudeste 30 Sudeste 0 -- -- 57
2021-02-26 14:00:00 16.3 11 Sudeste 31 Sudeste 0 -- -- 58
2021-02-26 13:00:00 16.2 12 Sudeste 39 Sudeste 0 -- -- 59
2021-02-26 12:00:00 15.9 12 Sudeste 22 Este 0 -- -- 61
2021-02-26 11:00:00 15.2 5 Sudeste 18 Este 0 -- -- 66
2021-02-26 10:00:00 14.2 9 Este 19 Este 0 -- -- 70
2021-02-26 09:00:00 13.2 6 Sudeste 15 Sudeste 0 -- -- 72
2021-02-26 08:00:00 13.2 4 Este 12 Este 0 -- -- 70
2021-02-26 07:00:00 13.4 9 Este 14 Este 0 -- -- 70
2021-02-26 06:00:00 13.2 8 Este 18 Este 0 -- -- 73
2021-02-26 05:00:00 13.5 7 Este 18 Sudeste 0 -- -- 72
2021-02-26 04:00:00 13.5 7 Este 21 Este 0 -- -- 72
2021-02-26 03:00:00 13.7 7 Este 35 Sudeste 0 -- -- 71
2021-02-26 02:00:00 13.9 21 Sudeste 38 Sudeste 0 -- -- 70
2021-02-26 01:00:00 14 17 Sudeste 32 Sudeste 0 -- -- 70
2021-02-26 00:00:00 14 18 Sudeste 33 Sudeste 0 -- -- 71
2021-02-25 23:00:00 13.9 8 Este 22 Sudeste 0 -- -- 71
2021-02-25 22:00:00 14.1 11 Sudeste 27 Sudeste 0 -- -- 70
2021-02-25 21:00:00 13.5 8 Nordeste 17 Nordeste 0 -- -- 72
2021-02-25 20:00:00 14.2 5 Nordeste 19 Este 0 -- -- 68
2021-02-25 19:00:00 15 5 Sudeste 32 Sudeste 0 -- -- 63
2021-02-25 18:00:00 15.5 16 Sudeste 32 Sudeste 0 -- -- 63
2021-02-25 17:00:00 15.9 15 Sudeste 35 Sudeste 0 -- -- 64
2021-02-25 16:00:00 15.8 17 Sudeste 43 Sudeste 0 -- -- 64
2021-02-25 15:00:00 15.8 19 Sudeste 47 Sudeste 0 -- -- 65
2021-02-25 14:00:00 16.1 22 Sudeste 44 Sudeste 0 -- -- 64
2021-02-25 13:00:00 16.1 17 Sudeste 38 Este 0 -- -- 64
2021-02-25 12:00:00 15.8 17 Sudeste 53 Sudeste 0 -- -- 66
2021-02-25 11:00:00 15.1 26 Sudeste 53 Sudeste 0 -- -- 65
2021-02-25 10:00:00 14.8 12 Sudeste 32 Sudeste 0 -- -- 66
2021-02-25 09:00:00 14 6 Sudoeste 23 Sudeste 0 -- -- 65
2021-02-25 08:00:00 13.4 7 Sudoeste 20 Sudoeste 0 -- -- 66
2021-02-25 07:00:00 12.8 6 Oeste 42 Sudeste 0 -- -- 69
2021-02-25 06:00:00 13.1 22 Sudeste 50 Sudeste 0 -- -- 68
2021-02-25 05:00:00 12.7 27 Sudeste 58 Sudeste 0 -- -- 72
2021-02-25 04:00:00 12.8 32 Sudeste 63 Sudeste 0 -- -- 71
2021-02-25 03:00:00 13 33 Sudeste 72 Sudeste 0 -- -- 71
2021-02-25 02:00:00 13.2 37 Sudeste 70 Sur 0 -- -- 69
2021-02-25 01:00:00 13.5 37 Sudeste 68 Sudeste 0 -- -- 67
2021-02-25 00:00:00 13.6 31 Sudeste 69 Sudeste 0 -- -- 67
2021-02-24 23:00:00 13.7 23 Sudeste 46 Sudeste 0 -- -- 69
2021-02-24 22:00:00 13.4 20 Sur 46 Sur 0 -- -- 72
2021-02-24 21:00:00 13.5 11 Sudeste 30 Sur 0 -- -- 69
2021-02-24 20:00:00 13.6 14 Sudeste 35 Sudeste 0 -- -- 70
2021-02-24 19:00:00 14.2 12 Sudeste 48 Sudeste 0 -- -- 67
2021-02-24 18:00:00 15.3 26 Sudeste 45 Sudeste 0 -- -- 63
2021-02-24 17:00:00 15.8 17 Sur 46 Sudeste 0 -- -- 61
2021-02-24 16:00:00 16.4 19 Sudeste 54 Sudeste 0 -- -- 59
2021-02-24 15:00:00 16.3 28 Sudeste 60 Sudeste 0 -- -- 61
2021-02-24 14:00:00 15.3 15 Sur 57 Sudeste 0 -- -- 66
2021-02-24 13:00:00 15.7 23 Sudeste 50 Sudeste 0 -- -- 64
2021-02-24 12:00:00 15.1 22 Sudeste 46 Sudeste 0 -- -- 66
2021-02-24 11:00:00 13.8 19 Sudeste 46 Sudeste 0 -- -- 72
2021-02-24 10:00:00 13.6 22 Sudeste 46 Sudeste 0 -- -- 70
2021-02-24 09:00:00 12.2 10 Este 26 Este 0 -- -- 75
2021-02-24 08:00:00 12 10 Este 31 Sudeste 0 -- -- 74
2021-02-24 07:00:00 11.8 10 Este 21 Sudeste 0 -- -- 74
2021-02-24 06:00:00 11.7 8 Este 31 Sudeste 0 -- -- 74
2021-02-24 05:00:00 12 14 Sudeste 33 Sudeste 0 -- -- 74
2021-02-24 04:00:00 11.4 9 Este 18 Sudeste 0 -- -- 76
2021-02-24 03:00:00 11.4 7 Sudeste 17 Sudeste 0 -- -- 77
2021-02-24 02:00:00 11.2 11 Sudeste 31 Sudeste 0 -- -- 74
2021-02-24 01:00:00 11.7 16 Sudeste 36 Sudeste 0 -- -- 70
2021-02-24 00:00:00 11.7 22 Sudeste 41 Sudeste 0 -- -- 70
2021-02-23 23:00:00 12.1 26 Sudeste 45 Este 0 -- -- 67
2021-02-23 22:00:00 12.1 14 Sudeste 31 Sudeste 0 -- -- 71
2021-02-23 21:00:00 12.5 14 Sudeste 32 Sudeste 0 -- -- 67
2021-02-23 20:00:00 13 9 Sudeste 24 Sudeste 0 -- -- 60
2021-02-23 19:00:00 14.5 10 Sudeste 24 Sur 0 -- -- 54
2021-02-23 18:00:00 16 14 Sur 26 Sudeste 0 -- -- 47
2021-02-23 17:00:00 16.8 16 Sudeste 32 Sudeste 0 -- -- 43
2021-02-23 16:00:00 17.2 17 Sudeste 31 Sudeste 0 -- -- 41
2021-02-23 15:00:00 17.2 15 Sudeste 32 Sudeste 0 -- -- 40
2021-02-23 14:00:00 16.8 14 Sudeste 28 Sudeste 0 -- -- 42
2021-02-23 13:00:00 16 9 Sudeste 20 Sur 0 -- -- 43
2021-02-23 12:00:00 14.2 5 Nordeste 14 Este 0 -- -- 55
2021-02-23 11:00:00 13.1 4 Este 12 Este 0 -- -- 67
2021-02-23 10:00:00 11.4 6 Este 12 Sudeste 0 -- -- 74
2021-02-23 09:00:00 8.9 8 Sudeste 17 Sudeste 0 -- -- 85
2021-02-23 08:00:00 8.6 9 Este 17 Este 0 -- -- 84
2021-02-23 07:00:00 8.3 10 Sudeste 17 Este 0 -- -- 83
2021-02-23 06:00:00 8.4 11 Sudeste 17 Sudeste 0 -- -- 83
2021-02-23 05:00:00 9.2 8 Este 14 Sudeste 0 -- -- 81
2021-02-23 04:00:00 9.2 8 Este 15 Sudeste 0 -- -- 80
2021-02-23 03:00:00 9.3 5 Este 8 Este 0 -- -- 82
2021-02-23 02:00:00 9.5 6 Sudeste 7 Sudeste 0 -- -- 81
2021-02-23 01:00:00 10 4 Sudeste 6 Sudeste 0 -- -- 79
2021-02-23 00:00:00 10.4 4 Sur 9 Sur 0 -- -- 76
2021-02-22 23:00:00 10.6 4 Sur 10 Sudoeste 0 -- -- 73
2021-02-22 22:00:00 10.8 5 Sur 9 Sudoeste 0 -- -- 72
2021-02-22 21:00:00 11.2 5 Sur 8 Sur 0 -- -- 69
2021-02-22 20:00:00 11.9 5 Sudoeste 9 Sudoeste 0 -- -- 66
2021-02-22 19:00:00 13.1 7 Oeste 22 Oeste 0 -- -- 63
2021-02-22 18:00:00 14.3 12 Oeste 22 Oeste 0 -- -- 58
2021-02-22 17:00:00 14.6 15 Oeste 26 Oeste 0 -- -- 56
2021-02-22 16:00:00 14.3 20 Oeste 31 Oeste 0 -- -- 57
2021-02-22 15:00:00 13.7 13 Noroeste 24 Oeste 0 -- -- 57
2021-02-22 14:00:00 13.6 13 Oeste 24 Oeste 0 -- -- 55
2021-02-22 13:00:00 12.8 10 Noroeste 20 Oeste 0 -- -- 55
2021-02-22 12:00:00 12 9 Noroeste 16 Noroeste 0 -- -- 60
2021-02-22 11:00:00 11 7 Oeste 13 Noroeste 0 -- -- 67
2021-02-22 10:00:00 9.5 4 Sudoeste 8 Sudoeste 0 -- -- 77
2021-02-22 09:00:00 7 4 Sur 9 Sudoeste 0 -- -- 83
2021-02-22 08:00:00 6.5 5 Sur 11 Sur 0 -- -- 85
2021-02-22 07:00:00 6.4 5 Sur 11 Sudoeste 0 -- -- 87
2021-02-22 06:00:00 6.4 5 Sudoeste 10 Sudoeste 0 -- -- 88
2021-02-22 05:00:00 6.7 5 Sur 9 Sur 0 -- -- 88
2021-02-22 04:00:00 7.2 4 Sur 13 Sudoeste 0 -- -- 88
2021-02-22 03:00:00 7.5 7 Sudoeste 20 Sudoeste 0 -- -- 88
2021-02-22 02:00:00 7.8 9 Oeste 24 Sudoeste 0 -- -- 86
2021-02-22 01:00:00 8.5 15 Oeste 26 Oeste 0 -- -- 84
2021-02-22 00:00:00 8.5 15 Sudoeste 27 Oeste 0 -- -- 83
2021-02-21 23:00:00 8.9 15 Oeste 23 Oeste 0 -- -- 82
2021-02-21 22:00:00 9.2 11 Sudoeste 19 Sudoeste 0 -- -- 81
2021-02-21 21:00:00 9.7 9 Sudoeste 15 Sudoeste 0 -- -- 79
2021-02-21 20:00:00 10 10 Sudoeste 22 Oeste 0 -- -- 81
2021-02-21 19:00:00 10.7 16 Oeste 35 Noroeste 0 -- -- 84
2021-02-21 18:00:00 10.4 22 Oeste 38 Oeste 0 -- -- 86
2021-02-21 17:00:00 9.9 23 Oeste 37 Oeste 0.2 -- -- 91
2021-02-21 16:00:00 10.1 17 Oeste 37 Oeste 0 -- -- 88
2021-02-21 15:00:00 11.1 25 Oeste 46 Sudoeste 0.4 -- -- 85
2021-02-21 14:00:00 10.6 14 Oeste 27 Oeste 5.2 -- -- 90
2021-02-21 13:00:00 11.2 9 Sudoeste 20 Sudoeste 5.8 -- -- 88
2021-02-21 12:00:00 11.9 16 Sudoeste 28 Sudoeste 3.2 -- -- 85
2021-02-21 11:00:00 13.2 10 Sudoeste 31 Oeste 0 -- -- 76
2021-02-21 10:00:00 14.7 5 Sudeste 19 Sudeste 0 -- -- 58
2021-02-21 09:00:00 14.2 13 Sudeste 24 Sudeste 0 -- -- 60
2021-02-21 08:00:00 14 10 Sudeste 18 Sudeste 0 -- -- 60
2021-02-21 07:00:00 14.3 8 Sudeste 14 Sudeste 0 -- -- 56
2021-02-21 06:00:00 14.7 6 Sur 16 Sur 0 -- -- 52
2021-02-21 05:00:00 14.8 9 Sur 23 Sur 0 -- -- 50
2021-02-21 04:00:00 14.5 14 Sudeste 32 Sudeste 0 -- -- 55
2021-02-21 03:00:00 14.6 16 Sudeste 36 Sudeste 0 -- -- 55
2021-02-21 02:00:00 14.4 25 Sudeste 50 Sudeste 0 -- -- 60
2021-02-21 01:00:00 13.7 26 Sudeste 50 Sudeste 0 -- -- 70
2021-02-21 00:00:00 13.5 31 Sudeste 57 Sudeste 0 -- -- 72
2021-02-20 23:00:00 13.3 26 Sudeste 50 Sudeste 0 -- -- 69
2021-02-20 22:00:00 14.1 18 Sudeste 44 Sudeste 0 -- -- 64
2021-02-20 21:00:00 14.5 24 Sudeste 42 Sudeste 0 -- -- 61
2021-02-20 20:00:00 15.3 17 Sudeste 32 Sudeste 0 -- -- 58
2021-02-20 19:00:00 16.6 18 Sudeste 34 Sudeste 0 -- -- 52
2021-02-20 18:00:00 17.6 19 Sudeste 36 Sudeste 0 -- -- 53
2021-02-20 17:00:00 18.6 22 Sudeste 37 Sudeste 0 -- -- 51
2021-02-20 16:00:00 20.2 18 Sur 35 Sudeste 0 -- -- 45
2021-02-20 15:00:00 19.8 13 Sudeste 40 Sudeste 0 -- -- 45
2021-02-20 14:00:00 18.6 24 Sudeste 41 Sudeste 0 -- -- 44
2021-02-20 13:00:00 18.6 21 Sudeste 40 Sudeste 0 -- -- 45
2021-02-20 12:00:00 17.4 22 Sudeste 41 Sudeste 0 -- -- 55
2021-02-20 11:00:00 15.4 25 Sudeste 49 Sudeste 0 -- -- 59
2021-02-20 10:00:00 13.5 19 Sudeste 35 Sudeste 0 -- -- 64
2021-02-20 09:00:00 12.5 17 Sudeste 32 Sudeste 0 -- -- 62
2021-02-20 08:00:00 12.6 18 Sudeste 33 Sudeste 0 -- -- 56
2021-02-20 07:00:00 12.5 13 Sudeste 23 Sudeste 0 -- -- 57
2021-02-20 06:00:00 11.1 0 Calma 7 Este 0 -- -- 66
2021-02-20 05:00:00 10.7 5 Nordeste 16 Sudeste 0 -- -- 69
2021-02-20 04:00:00 11.9 0 Calma 24 Sur 0 -- -- 67
2021-02-20 03:00:00 12.7 14 Sudeste 32 Sudeste 0 -- -- 65
2021-02-20 02:00:00 12.1 2 Sur 12 Sudeste 0 -- -- 68
2021-02-20 01:00:00 12.4 8 Este 12 Este 0 -- -- 72
2021-02-20 00:00:00 11.6 5 Sudeste 8 Sudeste 0 -- -- 88
2021-02-19 23:00:00 11.4 4 Sur 6 Sudeste 0 -- -- 87
2021-02-19 22:00:00 12.1 3 Noroeste 13 Sudeste 0 -- -- 83
2021-02-19 21:00:00 13.5 7 Sudeste 16 Sudeste 0 -- -- 80
2021-02-19 20:00:00 13.7 10 Sudeste 18 Este 0 -- -- 81
2021-02-19 19:00:00 14.3 0 Calma 10 Noroeste 0 -- -- 78
2021-02-19 18:00:00 15.5 7 Noroeste 18 Noroeste 0 -- -- 74
2021-02-19 17:00:00 16.2 9 Noroeste 13 Noroeste 0 -- -- 74
2021-02-19 16:00:00 15 4 Oeste 15 Noroeste 0 -- -- 79
2021-02-19 15:00:00 13.1 8 Oeste 19 Noroeste 0 -- -- 87
2021-02-19 14:00:00 12.1 8 Noroeste 14 Noroeste 0 -- -- 87
2021-02-19 13:00:00 11.2 8 Noroeste 12 Noroeste 0 -- -- 89
2021-02-19 12:00:00 10.6 5 Noroeste 9 Noroeste 0 -- -- 89
2021-02-19 11:00:00 10.5 4 Noroeste 6 Oeste 0 -- -- 91
2021-02-19 10:00:00 10 0 Calma 8 Sudeste 0 -- -- 96
2021-02-19 09:00:00 7.3 6 Sudeste 9 Sudeste 0 -- -- 95
2021-02-19 08:00:00 7.5 2 Sudoeste 4 Sur 0 -- -- 93
2021-02-19 07:00:00 8.2 2 Norte 4 Norte 0 -- -- 91
2021-02-19 06:00:00 8.9 0 Calma 4 Noroeste 0 -- -- 89
2021-02-19 05:00:00 10.3 0 Calma 6 Sudeste 0 -- -- 89
2021-02-19 04:00:00 10.7 3 Sudeste 11 Sudeste 0 -- -- 84
2021-02-19 03:00:00 10.8 4 Sur 6 Sudeste 0 -- -- 86
2021-02-19 02:00:00 11.1 2 Sur 9 Sudeste 0 -- -- 86
2021-02-19 01:00:00 11.4 6 Sudeste 9 Sudeste 0 -- -- 86
2021-02-19 00:00:00 12.5 0 Calma 5 Este 0 -- -- 84
2021-02-18 23:00:00 12.8 0 Calma 5 Sudeste 0 -- -- 83
2021-02-18 22:00:00 13.1 3 Este 6 Sudeste 0 -- -- 83
2021-02-18 21:00:00 13.6 0 Calma 3 Nordeste 0 -- -- 81
2021-02-18 20:00:00 14.4 2 Nordeste 5 Norte 0 -- -- 79
2021-02-18 19:00:00 15.8 2 Norte 10 Noroeste 0 -- -- 73
2021-02-18 18:00:00 17.1 5 Noroeste 9 Noroeste 0 -- -- 69
2021-02-18 17:00:00 17.1 4 Noroeste 10 Oeste 0 -- -- 69
2021-02-18 16:00:00 16 6 Oeste 14 Noroeste 0 -- -- 72
2021-02-18 15:00:00 14.8 10 Oeste 20 Noroeste 0 -- -- 76
2021-02-18 14:00:00 14 14 Oeste 21 Oeste 0 -- -- 81
2021-02-18 13:00:00 13.5 15 Noroeste 20 Oeste 0 -- -- 81
2021-02-18 12:00:00 14.2 10 Oeste 18 Oeste 0 -- -- 78
2021-02-18 11:00:00 13.3 7 Oeste 12 Oeste 0 -- -- 78
2021-02-18 10:00:00 11.8 2 Noroeste 8 Noroeste 0 -- -- 80
2021-02-18 09:00:00 11.5 0 Calma 6 Norte 0 -- -- 81
2021-02-18 08:00:00 11.6 3 Nordeste 5 Nordeste 0 -- -- 78
2021-02-18 07:00:00 10.9 0 Calma 7 Oeste 0 -- -- 81
2021-02-18 06:00:00 12.8 0 Calma 8 Sudeste 0 -- -- 78
2021-02-18 05:00:00 13 6 Sudeste 12 Sur 0 -- -- 77
2021-02-18 04:00:00 13.3 6 Sur 11 Sur 0 -- -- 73
2021-02-18 03:00:00 13.3 4 Sur 5 Sur 0 -- -- 75
2021-02-18 02:00:00 13.3 5 Norte 7 Norte 0 -- -- 70
2021-02-18 01:00:00 14.2 3 Nordeste 3 Nordeste 0 -- -- 69
2021-02-18 00:00:00 15.1 0 Calma 5 Sudeste 0 -- -- 64
2021-02-17 23:00:00 15.7 4 Sur 8 Sur 0 -- -- 62
2021-02-17 22:00:00 16.3 4 Sur 6 Sudeste 0 -- -- 63
2021-02-17 21:00:00 17.2 5 Sur 7 Sur 0 -- -- 61
2021-02-17 20:00:00 18.3 4 Sur 8 Oeste 0 -- -- 60
2021-02-17 19:00:00 20.7 2 Nordeste 8 Noroeste 0 -- -- 53
2021-02-17 18:00:00 22.6 5 Norte 13 Norte 0 -- -- 47
2021-02-17 17:00:00 23.2 9 Noroeste 17 Oeste 0 -- -- 46
2021-02-17 16:00:00 23.3 11 Noroeste 17 Noroeste 0 -- -- 49
2021-02-17 15:00:00 23.6 3 Norte 14 Este 0 -- -- 31
2021-02-17 14:00:00 21.4 10 Noroeste 14 Norte 0 -- -- 55
2021-02-17 13:00:00 20 9 Norte 15 Norte 0 -- -- 59
2021-02-17 12:00:00 19.3 5 Este 13 Este 0 -- -- 51
2021-02-17 11:00:00 17.2 4 Nordeste 16 Este 0 -- -- 62
2021-02-17 10:00:00 15.9 6 Sudeste 17 Sudeste 0 -- -- 57
2021-02-17 09:00:00 11.9 4 Este 14 Sudeste 0 -- -- 71
2021-02-17 08:00:00 11.4 2 Norte 8 Este 0 -- -- 73
2021-02-17 07:00:00 10.3 0 Calma 5 Sudeste 0 -- -- 79
2021-02-17 06:00:00 10.7 4 Sudeste 5 Sudeste 0 -- -- 79
2021-02-17 05:00:00 11.3 0 Calma 7 Sudeste 0 -- -- 75
2021-02-17 04:00:00 11.9 3 Sudeste 6 Sudeste 0 -- -- 73
2021-02-17 03:00:00 11.5 0 Calma 4 Nordeste 0 -- -- 76
2021-02-17 02:00:00 12.5 2 Nordeste 9 Sudeste 0 -- -- 72
2021-02-17 01:00:00 13.1 6 Sudeste 9 Sudeste 0 -- -- 68
2021-02-17 00:00:00 13.8 0 Calma 7 Sudeste 0 -- -- 67
2021-02-16 23:00:00 14.7 3 Este 6 Sudeste 0 -- -- 65
2021-02-16 22:00:00 15.1 4 Sudeste 8 Sudeste 0 -- -- 63
2021-02-16 21:00:00 15.4 6 Sudeste 9 Sudeste 0 -- -- 63
2021-02-16 20:00:00 16.5 0 Calma 8 Noroeste 0 -- -- 63
2021-02-16 19:00:00 18.8 4 Noroeste 9 Noroeste 0 -- -- 49
2021-02-16 18:00:00 20.8 7 Noroeste 12 Noroeste 0 -- -- 40
2021-02-16 17:00:00 21.5 6 Noroeste 12 Noroeste 0 -- -- 42
2021-02-16 16:00:00 21.3 4 Norte 12 Oeste 0 -- -- 42
2021-02-16 15:00:00 20.6 9 Oeste 14 Oeste 0 -- -- 46
2021-02-16 14:00:00 19.6 8 Noroeste 13 Oeste 0 -- -- 48
2021-02-16 13:00:00 19 0 Calma 9 Oeste 0 -- -- 46
2021-02-16 12:00:00 17.3 8 Noroeste 16 Sudeste 0 -- -- 57
2021-02-16 11:00:00 15.6 9 Sudeste 18 Sudeste 0 -- -- 57
2021-02-16 10:00:00 13.6 8 Sudeste 15 Sudeste 0 -- -- 61
2021-02-16 09:00:00 10.7 3 Sudeste 22 Este 0 -- -- 67
2021-02-16 08:00:00 11.4 14 Sudeste 34 Sudeste 0 -- -- 63
2021-02-16 07:00:00 11.4 19 Sudeste 39 Sudeste 0 -- -- 63
2021-02-16 06:00:00 11.6 19 Sudeste 41 Sudeste 0 -- -- 60
2021-02-16 05:00:00 11.7 18 Sudeste 33 Sudeste 0 -- -- 59
2021-02-16 04:00:00 12.1 15 Sudeste 33 Sudeste 0 -- -- 58
2021-02-16 03:00:00 12.1 18 Sudeste 44 Sudeste 0 -- -- 61
2021-02-16 02:00:00 12.2 23 Sudeste 46 Sudeste 0 -- -- 61
2021-02-16 01:00:00 12.4 24 Sudeste 49 Sudeste 0 -- -- 61
2021-02-16 00:00:00 12.6 25 Sudeste 50 Sudeste 0 -- -- 62
2021-02-15 23:00:00 12.6 24 Sudeste 48 Sudeste 0 -- -- 61
2021-02-15 22:00:00 12.7 23 Sudeste 55 Sudeste 0 -- -- 62
2021-02-15 21:00:00 12.9 26 Sudeste 53 Sudeste 0 -- -- 59
2021-02-15 20:00:00 13.2 25 Sudeste 48 Sudeste 0 -- -- 60
2021-02-15 19:00:00 14.1 20 Sudeste 44 Sudeste 0 -- -- 58
2021-02-15 18:00:00 15.6 24 Sudeste 50 Sudeste 0 -- -- 53
2021-02-15 17:00:00 16.5 24 Sudeste 47 Sudeste 0 -- -- 53
2021-02-15 16:00:00 16.9 27 Sudeste 51 Sudeste 0 -- -- 52
2021-02-15 15:00:00 16.7 28 Sudeste 53 Sudeste 0 -- -- 53
2021-02-15 14:00:00 16.7 27 Sudeste 53 Sudeste 0 -- -- 54
2021-02-15 13:00:00 16.1 27 Sudeste 59 Sudeste 0 -- -- 57
2021-02-15 12:00:00 15.3 26 Sudeste 53 Sudeste 0 -- -- 60
2021-02-15 11:00:00 14.3 30 Sudeste 57 Sur 0 -- -- 64
2021-02-15 10:00:00 13.4 31 Sudeste 57 Sudeste 0 -- -- 68
2021-02-15 09:00:00 12.5 26 Sudeste 56 Sudeste 0 -- -- 71
2021-02-15 08:00:00 12.1 27 Sudeste 73 Sudeste 0 -- -- 73
2021-02-15 07:00:00 12.3 30 Sudeste 65 Sudeste 0 -- -- 71
2021-02-15 06:00:00 12.2 32 Sudeste 64 Sudeste 0 -- -- 71
2021-02-15 05:00:00 12.3 29 Sudeste 65 Sudeste 0 -- -- 69
2021-02-15 04:00:00 12.4 30 Sudeste 59 Sudeste 0 -- -- 67
2021-02-15 03:00:00 12.6 29 Sudeste 70 Sudeste 0 -- -- 65
2021-02-15 02:00:00 12.9 29 Sudeste 53 Sudeste 0 -- -- 63
2021-02-15 01:00:00 13 31 Sudeste 57 Sudeste 0 -- -- 64
2021-02-15 00:00:00 13.2 29 Sudeste 59 Este 0 -- -- 62
2021-02-14 23:00:00 13.5 28 Sudeste 57 Sudeste 0 -- -- 61
2021-02-14 22:00:00 13.7 31 Sudeste 60 Sur 0 -- -- 61
2021-02-14 21:00:00 14 27 Sudeste 54 Sur 0 -- -- 62
2021-02-14 20:00:00 14.5 24 Sudeste 49 Sur 0 -- -- 64
2021-02-14 19:00:00 15.6 23 Sudeste 49 Sudeste 0 -- -- 50
2021-02-14 18:00:00 17.2 21 Sudeste 37 Sudeste 0 -- -- 45
2021-02-14 17:00:00 18.5 21 Sudeste 40 Sudeste 0 -- -- 43
2021-02-14 16:00:00 19.3 20 Sudeste 40 Sudeste 0 -- -- 40
2021-02-14 15:00:00 19.5 21 Sudeste 40 Sudeste 0 -- -- 39
2021-02-14 14:00:00 19.4 20 Sudeste 51 Sudeste 0 -- -- 39
2021-02-14 13:00:00 18.9 24 Sudeste 57 Sudeste 0 -- -- 39
2021-02-14 12:00:00 18 23 Sudeste 44 Sudeste 0 -- -- 43
2021-02-14 11:00:00 16.9 16 Este 31 Este 0 -- -- 46
2021-02-14 10:00:00 14.1 14 Este 30 Este 0 -- -- 53
2021-02-14 09:00:00 11.7 17 Sudeste 30 Este 0 -- -- 59
2021-02-14 08:00:00 11.9 12 Este 21 Sudeste 0 -- -- 59
2021-02-14 07:00:00 11.7 11 Sudeste 17 Sudeste 0 -- -- 63
2021-02-14 06:00:00 11.1 0 Calma 10 Este 0 -- -- 70
2021-02-14 05:00:00 12.7 6 Este 15 Este 0 -- -- 64
2021-02-14 04:00:00 12.2 4 Sudeste 13 Este 0 -- -- 64
2021-02-14 03:00:00 12.8 8 Este 15 Este 0 -- -- 62
2021-02-14 02:00:00 13.1 4 Este 11 Este 0 -- -- 64
2021-02-14 01:00:00 13.5 5 Este 12 Sudeste 0 -- -- 64
2021-02-14 00:00:00 13.4 9 Sudeste 12 Sudeste 0 -- -- 62
2021-02-13 23:00:00 13.6 4 Este 7 Sudeste 0 -- -- 60
2021-02-13 22:00:00 14.8 6 Este 13 Sudeste 0 -- -- 55
2021-02-13 21:00:00 14.6 10 Sudeste 14 Sudeste 0 -- -- 59
2021-02-13 20:00:00 14.5 0 Calma 5 Este 0 -- -- 62
2021-02-13 19:00:00 16.7 0 Calma 7 Nordeste 0 -- -- 53
2021-02-13 18:00:00 17.7 3 Norte 10 Norte 0 -- -- 50
2021-02-13 17:00:00 17.7 5 Este 10 Este 0 -- -- 46
2021-02-13 16:00:00 17.2 8 Nordeste 19 Norte 0 -- -- 56
2021-02-13 15:00:00 16.7 8 Norte 16 Norte 0 -- -- 65
2021-02-13 14:00:00 16.6 5 Norte 14 Norte 0 -- -- 64
2021-02-13 13:00:00 15.7 7 Nordeste 14 Norte 0 -- -- 67
2021-02-13 08:00:00 -- -- -- -- -- -- -- -- --
2021-02-13 07:00:00 9.4 0 Calma 3 Norte 0 -- -- 84
2021-02-13 06:00:00 9.8 0 Calma 2 Sudeste 0 -- -- 83
2021-02-13 05:00:00 10.9 3 Este 8 Este 0 -- -- 79
2021-02-13 04:00:00 11.6 3 Este 10 Este 0 -- -- 77
2021-02-13 03:00:00 11 4 Este 8 Nordeste 0 -- -- 79
2021-02-13 02:00:00 10.9 0 Calma 8 Nordeste 0 -- -- 79
2021-02-13 01:00:00 11.4 2 Este 5 Este 0 -- -- 78
2021-02-13 00:00:00 11.6 4 Sudeste 5 Sudeste 0 -- -- 78
2021-02-12 23:00:00 12.2 2 Este 4 Este 0 -- -- 76
2021-02-12 22:00:00 12.8 0 Calma 4 Este 0 -- -- 77
2021-02-12 21:00:00 13.5 2 Nordeste 6 Este 0 -- -- 74
2021-02-12 20:00:00 14.4 0 Calma 6 Noroeste 0 -- -- 73
2021-02-12 19:00:00 15.8 6 Noroeste 15 Noroeste 0 -- -- 66
2021-02-12 18:00:00 17.2 9 Noroeste 18 Noroeste 0 -- -- 61
2021-02-12 17:00:00 17.5 8 Noroeste 19 Noroeste 0 -- -- 59
2021-02-12 16:00:00 17.4 14 Noroeste 24 Noroeste 0 -- -- 60
2021-02-12 15:00:00 16.8 14 Noroeste 28 Noroeste 0 -- -- 64
2021-02-12 14:00:00 16.5 14 Noroeste 26 Noroeste 0 -- -- 68
2021-02-12 13:00:00 15.4 13 Noroeste 24 Noroeste 0 -- -- 76
2021-02-12 12:00:00 14.9 15 Noroeste 27 Oeste 0 -- -- 84
2021-02-12 11:00:00 14.3 18 Oeste 25 Oeste 0 -- -- 92
2021-02-12 10:00:00 13.7 10 Sudoeste 24 Oeste 0 -- -- 97
2021-02-12 09:00:00 13.5 11 Oeste 22 Oeste 1.4 -- -- 96
2021-02-12 08:00:00 13.6 13 Oeste 22 Oeste 0.2 -- -- 96
2021-02-12 07:00:00 13.4 6 Oeste 13 Oeste 0.2 -- -- 95
2021-02-12 06:00:00 13.2 5 Sudoeste 9 Sudoeste 0 -- -- 95
2021-02-12 05:00:00 13.3 4 Sudoeste 14 Oeste 0 -- -- 95
2021-02-12 04:00:00 13.3 8 Oeste 13 Oeste 0 -- -- 95
2021-02-12 03:00:00 13.1 6 Sudoeste 15 Oeste 0 -- -- 93
2021-02-12 02:00:00 13.1 5 Oeste 10 Sudoeste 0 -- -- 91
2021-02-12 01:00:00 13.1 5 Sudoeste 10 Sudoeste 0 -- -- 90
2021-02-12 00:00:00 13.3 5 Sudoeste 12 Sudoeste 0 -- -- 91
2021-02-11 23:00:00 13.9 4 Sudoeste 9 Sudoeste 0 -- -- 91
2021-02-11 22:00:00 14.3 5 Sudoeste 10 Sudoeste 0 -- -- 90
2021-02-11 21:00:00 14.5 5 Sur 9 Sur 0 -- -- 91
2021-02-11 20:00:00 14.8 0 Calma 5 Este 0 -- -- 88
2021-02-11 19:00:00 15.5 2 Nordeste 5 Nordeste 0 -- -- 87
2021-02-11 18:00:00 15.9 0 Calma 6 Oeste 0 -- -- 85
2021-02-11 17:00:00 15.7 3 Norte 13 Noroeste 0 -- -- 87
2021-02-11 16:00:00 15.9 5 Noroeste 8 Noroeste 0 -- -- 85
2021-02-11 15:00:00 15.9 6 Noroeste 13 Oeste 0 -- -- 85
2021-02-11 14:00:00 15.7 0 Calma 6 Oeste 0 -- -- 84
2021-02-11 13:00:00 15.2 2 Nordeste 8 Norte 0 -- -- 86
2021-02-11 12:00:00 14.6 3 Norte 6 Noroeste 0 -- -- 91
2021-02-11 11:00:00 13.9 0 Calma 6 Noroeste 0 -- -- 96
2021-02-11 10:00:00 13.5 4 Noroeste 7 Noroeste 0 -- -- 97
2021-02-11 09:00:00 13.2 2 Sudoeste 6 Sur 0 -- -- 97
2021-02-11 08:00:00 13.1 3 Sur 5 Sur 0 -- -- 97
2021-02-11 07:00:00 13 3 Oeste 13 Sudoeste 0 -- -- 97
2021-02-11 06:00:00 13.1 5 Oeste 18 Sudoeste 0 -- -- 97
2021-02-11 05:00:00 13.3 11 Oeste 17 Oeste 0 -- -- 96
2021-02-11 04:00:00 13.5 9 Oeste 15 Oeste 0.2 -- -- 96
2021-02-11 03:00:00 13.6 8 Oeste 13 Oeste 0 -- -- 96
2021-02-11 02:00:00 13.7 6 Sudoeste 15 Oeste 0.2 -- -- 96
2021-02-11 01:00:00 13.8 10 Oeste 21 Sudoeste 0 -- -- 95
2021-02-11 00:00:00 13.9 10 Oeste 25 Oeste 0 -- -- 94
2021-02-10 23:00:00 13.7 14 Oeste 28 Oeste 0 -- -- 94
2021-02-10 22:00:00 13.6 19 Oeste 34 Oeste 0.2 -- -- 95
2021-02-10 21:00:00 13.7 21 Sudoeste 32 Sudoeste 0 -- -- 94
2021-02-10 20:00:00 13.8 21 Oeste 39 Oeste 0 -- -- 94
2021-02-10 19:00:00 14 23 Oeste 36 Sudoeste 0.8 -- -- 94
2021-02-10 18:00:00 14.4 24 Oeste 49 Oeste 0 -- -- 93
2021-02-10 17:00:00 14.9 29 Oeste 48 Oeste 0 -- -- 89
2021-02-10 16:00:00 14.9 30 Oeste 60 Oeste 0 -- -- 92
2021-02-10 15:00:00 15.2 38 Oeste 59 Oeste 0 -- -- 89
2021-02-10 14:00:00 14.8 37 Oeste 58 Oeste 0 -- -- 93
2021-02-10 13:00:00 14.9 37 Oeste 58 Oeste 0 -- -- 92
2021-02-10 12:00:00 14.4 39 Oeste 65 Oeste 0 -- -- 93
2021-02-10 11:00:00 14.3 37 Oeste 57 Oeste 0 -- -- 92
2021-02-10 10:00:00 13.7 36 Oeste 69 Oeste 0.2 -- -- 89
2021-02-10 09:00:00 13.3 34 Oeste 60 Oeste 0.2 -- -- 93
2021-02-10 08:00:00 13.2 39 Oeste 61 Oeste 0.6 -- -- 93
2021-02-10 07:00:00 13.5 31 Oeste 57 Oeste 0 -- -- 88
2021-02-10 06:00:00 12.9 31 Oeste 48 Oeste 0 -- -- 90
2021-02-10 05:00:00 12.2 22 Sudoeste 36 Oeste 0 -- -- 88
2021-02-10 04:00:00 12.5 24 Oeste 46 Oeste 0.2 -- -- 93
2021-02-10 03:00:00 12.6 34 Oeste 48 Oeste 0 -- -- 91
2021-02-10 02:00:00 12.5 30 Oeste 50 Sudoeste 0.2 -- -- 89
2021-02-10 01:00:00 12.5 21 Oeste 62 Oeste 1.6 -- -- 94
2021-02-10 00:00:00 13.1 33 Oeste 53 Oeste 0 -- -- 91
2021-02-09 23:00:00 12.7 32 Oeste 48 Oeste 0.2 -- -- 93
2021-02-09 22:00:00 12.6 34 Oeste 57 Oeste 0.4 -- -- 92
2021-02-09 21:00:00 13.5 29 Sudoeste 54 Oeste 0 -- -- 87
2021-02-09 20:00:00 13.7 34 Oeste 54 Oeste 0 -- -- 86
2021-02-09 19:00:00 13.6 30 Sudoeste 51 Oeste 0 -- -- 87
2021-02-09 18:00:00 13 29 Oeste 49 Oeste 0.4 -- -- 90
2021-02-09 17:00:00 13.7 37 Oeste 56 Oeste 0.6 -- -- 87
2021-02-09 16:00:00 13.4 29 Sudoeste 55 Sudoeste 1.6 -- -- 90
2021-02-09 15:00:00 14.9 39 Sudoeste 71 Oeste 0 -- -- 80
2021-02-09 14:00:00 14.9 31 Sudoeste 55 Sudoeste 0 -- -- 77
2021-02-09 13:00:00 13 21 Sudoeste 46 Sudoeste 1 -- -- 90
2021-02-09 12:00:00 13.5 28 Sudoeste 51 Oeste 0 -- -- 80
2021-02-09 11:00:00 13.7 25 Sudoeste 40 Oeste 0 -- -- 73
2021-02-09 10:00:00 12.8 22 Sudoeste 40 Sudoeste 0 -- -- 78
2021-02-09 09:00:00 11.8 11 Sudoeste 21 Sudoeste 0 -- -- 84
2021-02-09 08:00:00 11.3 12 Sudoeste 26 Oeste 0 -- -- 86
2021-02-09 07:00:00 11.2 14 Sudoeste 35 Oeste 0 -- -- 86
2021-02-09 06:00:00 10.8 12 Sudoeste 23 Sudoeste 0 -- -- 91
2021-02-09 05:00:00 10.8 17 Oeste 27 Sudoeste 1 -- -- 92
2021-02-09 04:00:00 11 10 Sudoeste 24 Sudoeste 0.2 -- -- 91
2021-02-09 03:00:00 11.1 10 Sudoeste 22 Oeste 0 -- -- 89
2021-02-09 02:00:00 10.9 10 Sudoeste 18 Sudoeste 0 -- -- 90
2021-02-09 01:00:00 10.9 9 Sudoeste 20 Sudoeste 0 -- -- 89
2021-02-09 00:00:00 11.2 13 Oeste 24 Oeste 0 -- -- 88
2021-02-08 23:00:00 11.6 15 Sudoeste 27 Oeste 0 -- -- 87
2021-02-08 22:00:00 11.9 21 Oeste 35 Oeste 0 -- -- 85
2021-02-08 21:00:00 11.8 26 Oeste 43 Oeste 0 -- -- 88
2021-02-08 20:00:00 12.4 25 Oeste 46 Oeste 0 -- -- 86
2021-02-08 19:00:00 12.7 30 Oeste 55 Sudoeste 0.2 -- -- 82
2021-02-08 18:00:00 13.6 27 Oeste 44 Oeste 0 -- -- 76
2021-02-08 17:00:00 14 24 Oeste 46 Oeste 0 -- -- 73
2021-02-08 16:00:00 14.2 23 Oeste 45 Oeste 0 -- -- 72
2021-02-08 15:00:00 15 31 Oeste 52 Oeste 0 -- -- 68
2021-02-08 14:00:00 14.6 32 Oeste 46 Sudoeste 0 -- -- 68
2021-02-08 13:00:00 13.3 28 Oeste 42 Oeste 0 -- -- 76
2021-02-08 12:00:00 12.7 27 Oeste 40 Oeste 0 -- -- 82
2021-02-08 11:00:00 11.7 24 Oeste 38 Oeste 0 -- -- 88
2021-02-08 10:00:00 11.1 19 Oeste 31 Oeste 0 -- -- 90
2021-02-08 09:00:00 10.5 16 Oeste 28 Oeste 0 -- -- 92
2021-02-08 08:00:00 10.6 20 Oeste 43 Oeste 0.4 -- -- 92
2021-02-08 07:00:00 11.3 32 Oeste 62 Oeste 6.6 -- -- 90
2021-02-08 06:00:00 12.4 27 Sudoeste 51 Sudoeste 1.2 -- -- 88
2021-02-08 05:00:00 12.3 22 Sudoeste 52 Sudoeste 0 -- -- 84
2021-02-08 04:00:00 12.3 24 Sudoeste 46 Sudoeste 0 -- -- 84
2021-02-08 03:00:00 12 26 Sudoeste 43 Sudoeste 0 -- -- 85
2021-02-08 02:00:00 11.5 19 Sudoeste 35 Sudoeste 0 -- -- 87
2021-02-08 01:00:00 11 15 Sudoeste 28 Sudoeste 0 -- -- 87
2021-02-08 00:00:00 10.3 14 Sudoeste 35 Sudoeste 0 -- -- 89
2021-02-07 23:00:00 10.4 18 Sudoeste 31 Oeste 0 -- -- 85
2021-02-07 22:00:00 10.5 12 Sudoeste 26 Oeste 0 -- -- 80
2021-02-07 21:00:00 10.4 14 Oeste 31 Sudoeste 0 -- -- 77
2021-02-07 20:00:00 10.2 19 Oeste 32 Oeste 0 -- -- 76
2021-02-07 19:00:00 10.5 21 Oeste 36 Oeste 0 -- -- 75
2021-02-07 18:00:00 10.8 27 Oeste 46 Oeste 0 -- -- 68
2021-02-07 17:00:00 11.2 31 Oeste 50 Oeste 0 -- -- 67
2021-02-07 16:00:00 12.1 35 Oeste 51 Oeste 0 -- -- 66
2021-02-07 15:00:00 12.5 28 Oeste 46 Oeste 0 -- -- 69
2021-02-07 14:00:00 11.8 24 Oeste 38 Oeste 0 -- -- 77
2021-02-07 13:00:00 10.1 25 Oeste 33 Oeste 0 -- -- 88
2021-02-07 12:00:00 9.8 18 Oeste 30 Oeste 0 -- -- 91
2021-02-07 11:00:00 10 16 Oeste 26 Oeste 0 -- -- 91
2021-02-07 10:00:00 9.5 9 Sudoeste 18 Oeste 0 -- -- 94
2021-02-07 09:00:00 9.1 11 Oeste 21 Oeste 0 -- -- 95
2021-02-07 08:00:00 9 14 Oeste 21 Oeste 0 -- -- 94
2021-02-07 07:00:00 9.1 15 Oeste 22 Oeste 0 -- -- 94
2021-02-07 06:00:00 9.1 9 Oeste 23 Oeste 0 -- -- 94
2021-02-07 05:00:00 9.1 12 Oeste 17 Oeste 0 -- -- 93
2021-02-07 04:00:00 9.2 7 Sudoeste 10 Sudoeste 0 -- -- 92
2021-02-07 03:00:00 9.2 6 Sudoeste 13 Sudoeste 0 -- -- 90
2021-02-07 02:00:00 9.1 7 Sudoeste 14 Sudoeste 0 -- -- 89
2021-02-07 01:00:00 9.2 8 Sudoeste 16 Sudoeste 0 -- -- 88
2021-02-07 00:00:00 9.5 9 Sudoeste 23 Oeste 0 -- -- 86
2021-02-06 23:00:00 9.8 10 Sudoeste 25 Sudoeste 0 -- -- 86
2021-02-06 22:00:00 10.4 10 Sudoeste 27 Oeste 0 -- -- 85
2021-02-06 21:00:00 10.7 20 Oeste 32 Sudoeste 0 -- -- 86
2021-02-06 20:00:00 10.8 14 Sudoeste 21 Sudoeste 0 -- -- 85
2021-02-06 19:00:00 11.1 10 Sudoeste 26 Sudoeste 0 -- -- 83
2021-02-06 18:00:00 11.7 19 Oeste 37 Oeste 0 -- -- 84
2021-02-06 17:00:00 12.3 20 Oeste 40 Oeste 0 -- -- 78
2021-02-06 16:00:00 12.5 31 Oeste 46 Oeste 0 -- -- 78
2021-02-06 15:00:00 13.5 25 Oeste 39 Oeste 0 -- -- 73
2021-02-06 14:00:00 12.8 18 Oeste 35 Sudoeste 0 -- -- 79
2021-02-06 13:00:00 13.2 22 Sudoeste 34 Sudoeste 0 -- -- 72
2021-02-06 12:00:00 13 22 Sudoeste 38 Sudoeste 0 -- -- 74
2021-02-06 11:00:00 11.5 9 Sudoeste 20 Sudoeste 0 -- -- 86
2021-02-06 10:00:00 11.2 12 Sudoeste 23 Oeste 0 -- -- 86
2021-02-06 09:00:00 10.9 13 Sudoeste 22 Sudoeste 0 -- -- 85
2021-02-06 08:00:00 10.4 13 Sudoeste 24 Sudoeste 0 -- -- 84
2021-02-06 07:00:00 9.9 11 Sudoeste 21 Sudoeste 0 -- -- 86
2021-02-06 06:00:00 9.7 15 Sudoeste 35 Sudoeste 0 -- -- 87
2021-02-06 05:00:00 10.1 12 Sudoeste 33 Sudoeste 0 -- -- 87
2021-02-06 04:00:00 11.1 15 Sudoeste 26 Sur 0 -- -- 87
2021-02-06 03:00:00 11.7 11 Sur 26 Sur 0 -- -- 81
2021-02-06 02:00:00 12.4 15 Sur 32 Sur 0 -- -- 73
2021-02-06 01:00:00 12 12 Sudeste 22 Sudeste 0 -- -- 74
2021-02-06 00:00:00 11.9 10 Sur 23 Sur 0.2 -- -- 76
2021-02-05 23:00:00 12 9 Sur 21 Sur 0 -- -- 77
2021-02-05 22:00:00 12.5 9 Sur 15 Sur 0 -- -- 74
2021-02-05 21:00:00 12.7 9 Sur 15 Sur 0 -- -- 70
2021-02-05 20:00:00 12.8 6 Sur 18 Sudoeste 0 -- -- 75
2021-02-05 19:00:00 13.5 3 Oeste 11 Noroeste 0 -- -- 75
2021-02-05 18:00:00 14.4 3 Este 12 Oeste 0 -- -- 71
2021-02-05 17:00:00 14.2 2 Noroeste 12 Oeste 0 -- -- 83
2021-02-05 16:00:00 14 7 Noroeste 13 Oeste 0 -- -- 88
2021-02-05 15:00:00 14.7 5 Noroeste 15 Noroeste 0 -- -- 83
2021-02-05 14:00:00 14.9 8 Noroeste 19 Noroeste 0 -- -- 80
2021-02-05 13:00:00 14.7 14 Noroeste 22 Noroeste 0 -- -- 78
2021-02-05 12:00:00 15.8 13 Oeste 28 Sudoeste 0 -- -- 72
2021-02-05 11:00:00 14.6 17 Oeste 26 Oeste 0 -- -- 79
2021-02-05 10:00:00 11.9 3 Sudoeste 9 Sur 0 -- -- 86
2021-02-05 09:00:00 11.3 5 Sudoeste 10 Sudoeste 0 -- -- 85
2021-02-05 08:00:00 12.2 4 Sur 10 Sur 0 -- -- 82
2021-02-05 07:00:00 12.1 6 Sur 11 Sur 0 -- -- 81
2021-02-05 06:00:00 12.5 5 Sudoeste 36 Sur 0 -- -- 80
2021-02-05 05:00:00 15.3 15 Este 31 Sudeste 0 -- -- 60
2021-02-05 04:00:00 15 10 Sudeste 20 Sudeste 0 -- -- 61
2021-02-05 03:00:00 12.8 7 Sudeste 12 Sudeste 0 -- -- 81
2021-02-05 02:00:00 13.4 6 Sudeste 14 Sudoeste 0 -- -- 79
2021-02-05 01:00:00 14.3 7 Este 18 Este 0 -- -- 75
2021-02-05 00:00:00 14.4 10 Este 24 Este 0 -- -- 78
2021-02-04 23:00:00 13.7 10 Sudeste 21 Sudeste 0 -- -- 82
2021-02-04 22:00:00 13.7 2 Este 18 Este 0 -- -- 83
2021-02-04 21:00:00 14.2 14 Este 23 Este 0 -- -- 80
2021-02-04 20:00:00 14.5 3 Nordeste 12 Este 0 -- -- 80
2021-02-04 19:00:00 15.1 2 Nordeste 9 Noroeste 0 -- -- 79
2021-02-04 18:00:00 15.9 0 Calma 14 Noroeste 0 -- -- 76
2021-02-04 17:00:00 16.4 10 Oeste 16 Oeste 0 -- -- 74
2021-02-04 16:00:00 17 7 Oeste 15 Oeste 0 -- -- 70
2021-02-04 15:00:00 16.8 8 Noroeste 13 Noroeste 0 -- -- 71
2021-02-04 14:00:00 16.5 10 Oeste 18 Sudoeste 0 -- -- 71
2021-02-04 13:00:00 15.2 10 Oeste 19 Oeste 0 -- -- 71
2021-02-04 12:00:00 14.6 4 Oeste 6 Sur 0 -- -- 73
2021-02-04 11:00:00 13 3 Sudeste 18 Este 0 -- -- 79
2021-02-04 10:00:00 11.5 9 Sudeste 17 Sudeste 0 -- -- 87
2021-02-04 09:00:00 11 7 Sudeste 13 Sudeste 0 -- -- 90
2021-02-04 08:00:00 11.2 5 Sudeste 15 Este 0 -- -- 90
2021-02-04 07:00:00 12 6 Este 11 Este 0 -- -- 87
2021-02-04 06:00:00 12.3 7 Sudeste 10 Sudeste 0 -- -- 88
2021-02-04 05:00:00 12.2 5 Sudeste 8 Sudeste 0 -- -- 88
2021-02-04 04:00:00 12.4 0 Calma 8 Sudeste 0 -- -- 87
2021-02-04 03:00:00 12.1 3 Sudeste 8 Sudeste 0 -- -- 89
2021-02-04 02:00:00 12.6 3 Sudeste 6 Sudeste 0 -- -- 87
2021-02-04 01:00:00 13.1 4 Sur 8 Sur 0 -- -- 87
2021-02-04 00:00:00 13.3 3 Sur 9 Sudoeste 0 -- -- 85
2021-02-03 23:00:00 13.4 4 Sudoeste 9 Sudoeste 0 -- -- 84
2021-02-03 22:00:00 13.7 3 Sudoeste 13 Sudoeste 0 -- -- 82
2021-02-03 21:00:00 14 4 Sudoeste 8 Sudoeste 0 -- -- 78
2021-02-03 20:00:00 14.1 4 Sur 6 Sur 0 -- -- 77
2021-02-03 19:00:00 14.6 3 Sudoeste 8 Noroeste 0 -- -- 75
2021-02-03 18:00:00 15.1 6 Noroeste 13 Oeste 0 -- -- 74
2021-02-03 17:00:00 16.1 6 Noroeste 12 Oeste 0 -- -- 69
2021-02-03 16:00:00 16.2 7 Noroeste 13 Oeste 0 -- -- 68
2021-02-03 15:00:00 16 6 Oeste 13 Oeste 0 -- -- 66
2021-02-03 14:00:00 15.6 7 Noroeste 14 Oeste 0 -- -- 65
2021-02-03 13:00:00 15.2 4 Oeste 10 Oeste 0 -- -- 66
2021-02-03 12:00:00 14.8 4 Oeste 9 Sudoeste 0 -- -- 68
2021-02-03 11:00:00 13.8 4 Sudeste -- -- -- -- -- 74
2021-02-03 10:00:00 13.1 5 Sudeste 10 Sudeste 0 -- -- 74
2021-02-03 09:00:00 12.4 6 Sudeste 12 Sudeste 0 -- -- 80
2021-02-03 08:00:00 12.3 5 Sur 9 Sur 0 -- -- 86
2021-02-03 07:00:00 12.4 3 Sudoeste 5 Sudoeste 0 -- -- 86
2021-02-03 06:00:00 12.5 3 Sudoeste 5 Oeste 0 -- -- 85
2021-02-03 05:00:00 12.5 3 Sudeste 5 Sur 0 -- -- 86
2021-02-03 04:00:00 12.4 3 Sur 7 Sudoeste 0 -- -- 86
2021-02-03 03:00:00 12.4 3 Sudoeste 8 Sur 0 -- -- 86
2021-02-03 02:00:00 12.4 4 Sur 12 Sudoeste 0 -- -- 85
2021-02-03 01:00:00 12.4 5 Sudeste 9 Sudeste 0 -- -- 82
2021-02-03 00:00:00 12.1 6 Sudeste 9 Sudeste 0 -- -- 83
2021-02-02 23:00:00 12.5 6 Sudeste 9 Sudeste 0 -- -- 82
2021-02-02 22:00:00 12.7 0 Calma 5 Sudeste 0 -- -- 82
2021-02-02 21:00:00 13.1 4 Sudeste 10 Sudeste 0 -- -- 80
2021-02-02 20:00:00 13.8 2 Este 4 Nordeste 0 -- -- 77
2021-02-02 19:00:00 14.8 3 Nordeste 10 Noroeste 0 -- -- 74
2021-02-02 18:00:00 16.3 4 Noroeste 11 Noroeste 0 -- -- 68
2021-02-02 17:00:00 16.8 5 Norte 11 Norte 0 -- -- 66
2021-02-02 16:00:00 17.1 5 Noroeste 14 Oeste 0 -- -- 65
2021-02-02 15:00:00 16.8 11 Oeste 16 Oeste 0 -- -- 67
2021-02-02 14:00:00 15.4 3 Noroeste 10 Sudoeste 0 -- -- 69
2021-02-02 13:00:00 14.3 2 Sudoeste 10 Sudeste 0 -- -- 75
2021-02-02 12:00:00 13.5 4 Noroeste 10 Noroeste 0 -- -- 76
2021-02-02 11:00:00 13.2 2 Sudeste 6 Nordeste 0 -- -- 77
2021-02-02 10:00:00 12.5 2 Sudeste 8 Sudeste 0 -- -- 89
2021-02-02 09:00:00 11.5 4 Sudeste 8 Sudeste 0 -- -- 93
2021-02-02 08:00:00 11.1 0 Calma 3 Noroeste 0 -- -- 92
2021-02-02 07:00:00 11.2 0 Calma 5 Noroeste 0 -- -- 91
2021-02-02 06:00:00 11.7 0 Calma 4 Nordeste 0 -- -- 90
2021-02-02 05:00:00 11.5 3 Sudeste 6 Sur 0 -- -- 90
2021-02-02 04:00:00 11 3 Sur 8 Sur 0 -- -- 90
2021-02-02 03:00:00 11.1 5 Sur 9 Sur 0 -- -- 90
2021-02-02 02:00:00 10.9 6 Sudeste 10 Sur 0 -- -- 91
2021-02-02 01:00:00 10.9 5 Sur 9 Sur 0 -- -- 90
2021-02-02 00:00:00 11.1 3 Sur 8 Sudoeste 0 -- -- 89
2021-02-01 23:00:00 11.3 3 Sudoeste 9 Sudoeste 0 -- -- 87
2021-02-01 22:00:00 11.7 6 Sudoeste 14 Sudoeste 0 -- -- 85
2021-02-01 21:00:00 12.2 7 Sur 15 Sur 0 -- -- 83
2021-02-01 20:00:00 12.5 6 Sudoeste 14 Sudoeste 0 -- -- 83
2021-02-01 19:00:00 13.6 7 Sudoeste 27 Oeste 0 -- -- 79
2021-02-01 18:00:00 15.1 15 Oeste 33 Oeste 0 -- -- 76
2021-02-01 17:00:00 16.1 20 Oeste 44 Oeste 0 -- -- 74
2021-02-01 16:00:00 16.7 21 Oeste 37 Oeste 0 -- -- 73
2021-02-01 15:00:00 16.7 25 Oeste 41 Oeste 0 -- -- 71
2021-02-01 14:00:00 15.6 24 Oeste 33 Oeste 0 -- -- 78
2021-02-01 13:00:00 15.7 18 Oeste 27 Oeste 0 -- -- 79
2021-02-01 12:00:00 14.8 16 Oeste 27 Oeste 0 -- -- 82
2021-02-01 11:00:00 14.6 17 Oeste 34 Oeste 0 -- -- 86
2021-02-01 10:00:00 13.1 13 Oeste 26 Oeste 0 -- -- 95
2021-02-01 09:00:00 12.7 14 Oeste 27 Oeste 0 -- -- 95
2021-02-01 08:00:00 12.9 17 Oeste 24 Oeste 0 -- -- 95
2021-02-01 07:00:00 13.1 17 Oeste 30 Oeste 0 -- -- 95
2021-02-01 06:00:00 13.4 17 Oeste 30 Oeste 0 -- -- 95
2021-02-01 05:00:00 13.5 17 Oeste 34 Oeste 0 -- -- 95
2021-02-01 04:00:00 13.8 20 Oeste 35 Oeste 0 -- -- 95
2021-02-01 03:00:00 13.8 20 Oeste 39 Oeste 0 -- -- 95
2021-02-01 02:00:00 13.7 22 Oeste 35 Oeste 0 -- -- 94
2021-02-01 01:00:00 13.6 23 Oeste 37 Oeste 0.2 -- -- 94
2021-02-01 00:00:00 13.5 22 Oeste 35 Oeste 0.2 -- -- 94